Terminal Aerodrome Forecast
Issued by NWS Missoula, MT

Home | Current Version | Previous Version | Text Only | Print | Product List | Glossary On
Versions: 1 2 3 4 5 6 7 8 9 10 11 12 13 14 15 16 17 18 19 20 21 22 23 24 25 26 27 28 29 30 31 32 33 34 35 36 37 38 39 40 41 42 43 44 45 46
000
FTUS45 KMSO 210800 AAB
TAFBTM
TAF AMD
KBTM 210800Z 2108/2206 32005KT P6SM FEW012 OVC030
     FM211400 33006KT 1 1/2SM -SN OVC015
     FM212000 34009G16KT 1 1/2SM -SN OVC015
     FM220000 33009G16KT P6SM OVC050
     FM220200 31006KT P6SM OVC050=

USA.gov is the U.S. government's official web portal to all federal, state and local government web resources and services.